createdAt,value
2023-05-01T00:01:05.410Z,95.76
2023-05-01T00:06:03.386Z,95.41
2023-05-01T00:08:31.891Z,95.77
2023-05-01T00:11:09.815Z,95.35
2023-05-01T00:13:37.537Z,95.55
2023-05-01T00:16:12.636Z,95.63
2023-05-01T00:18:40.454Z,95.44
2023-05-01T00:21:08.000Z,95.48
2023-05-01T00:23:35.755Z,95.39
2023-05-01T00:26:03.500Z,95.03
2023-05-01T00:28:31.400Z,95.23
2023-05-01T00:30:59.103Z,94.96
2023-05-01T00:33:26.688Z,94.53
2023-05-01T00:35:55.838Z,94.86
2023-05-01T00:38:24.369Z,94.63
2023-05-01T00:40:52.379Z,94.84
2023-05-01T00:43:19.903Z,94.39
2023-05-01T00:45:47.546Z,94.25
2023-05-01T00:48:15.623Z,94.36
2023-05-01T00:50:44.862Z,94.22
2023-05-01T00:53:12.770Z,94.06
2023-05-01T00:55:42.354Z,93.67
2023-05-01T00:58:11.979Z,93.79
2023-05-01T01:00:39.720Z,93.52
2023-05-01T01:03:07.697Z,93.53
2023-05-01T01:05:42.112Z,93.70
2023-05-01T01:08:24.200Z,93.15
2023-05-01T01:11:35.809Z,93.41
2023-05-01T01:14:17.758Z,93.22
2023-05-01T01:17:16.941Z,93.34
2023-05-01T01:19:50.746Z,93.50
2023-05-01T01:22:24.050Z,93.60
2023-05-01T01:25:16.745Z,93.10
2023-05-01T01:28:18.292Z,93.22
2023-05-01T01:31:05.238Z,93.94
2023-05-01T01:33:51.712Z,93.27
2023-05-01T01:36:37.883Z,93.70
2023-05-01T01:39:46.896Z,93.61
2023-05-01T01:42:20.429Z,93.57
2023-05-01T01:45:05.090Z,93.54
2023-05-01T01:47:34.569Z,94.06
2023-05-01T01:50:06.859Z,93.70
2023-05-01T01:52:36.534Z,93.56
2023-05-01T01:55:09.687Z,93.89
2023-05-01T01:57:39.767Z,93.91
2023-05-01T02:00:11.239Z,93.95
2023-05-01T02:02:47.002Z,93.92
2023-05-01T02:05:17.954Z,93.81
2023-05-01T02:07:50.424Z,93.67
2023-05-01T02:10:18.865Z,94.04
2023-05-01T02:12:48.676Z,93.68
2023-05-01T02:15:19.126Z,93.94
2023-05-01T02:17:48.598Z,93.45
2023-05-01T02:20:16.710Z,93.75
2023-05-01T02:22:46.414Z,93.55
2023-05-01T02:25:16.807Z,93.62
2023-05-01T02:27:53.117Z,93.35
2023-05-01T02:30:21.786Z,93.77
2023-05-01T02:32:49.363Z,93.84
2023-05-01T02:35:17.813Z,93.61
2023-05-01T02:37:45.929Z,93.47
2023-05-01T02:40:15.232Z,93.83
2023-05-01T02:42:48.934Z,93.32
2023-05-01T02:45:22.678Z,93.59
2023-05-01T02:47:53.928Z,93.60
2023-05-01T02:50:23.466Z,93.83
2023-05-01T02:52:51.493Z,93.66
2023-05-01T02:55:39.754Z,93.51
2023-05-01T02:58:07.347Z,93.53
2023-05-01T03:00:35.574Z,93.60
2023-05-01T03:03:03.454Z,93.30
2023-05-01T03:05:31.114Z,93.65
2023-05-01T03:07:58.732Z,93.25
2023-05-01T03:10:26.268Z,93.88
2023-05-01T03:12:53.802Z,93.62
2023-05-01T03:15:21.335Z,93.74
2023-05-01T03:17:48.971Z,93.68
2023-05-01T03:20:16.685Z,93.18
2023-05-01T03:22:44.272Z,93.47
2023-05-01T03:25:12.107Z,93.07
2023-05-01T03:27:39.694Z,92.99
2023-05-01T03:30:08.957Z,93.47
2023-05-01T03:32:39.269Z,93.36
2023-05-01T03:35:10.746Z,92.92
2023-05-01T03:37:38.559Z,92.95
2023-05-01T03:40:06.944Z,92.90
2023-05-01T03:43:13.009Z,93.19
2023-05-01T03:45:41.674Z,93.19
2023-05-01T03:48:10.364Z,92.92
2023-05-01T03:50:38.266Z,93.01
2023-05-01T03:53:05.755Z,92.80
2023-05-01T03:55:33.737Z,93.59
2023-05-01T03:58:01.731Z,93.37
2023-05-01T04:00:29.603Z,93.90
2023-05-01T04:02:57.710Z,93.43
2023-05-01T04:05:25.843Z,93.69
2023-05-01T04:07:58.694Z,93.60
2023-05-01T04:10:26.571Z,93.88
2023-05-01T04:13:05.055Z,93.60
2023-05-01T04:15:33.077Z,93.70
2023-05-01T04:18:01.868Z,93.86
2023-05-01T04:20:29.738Z,93.84
2023-05-01T04:22:57.403Z,93.60
2023-05-01T04:25:25.219Z,94.10
2023-05-01T04:27:57.463Z,94.21
2023-05-01T04:30:24.970Z,94.17
2023-05-01T04:32:52.685Z,94.28
2023-05-01T04:35:20.278Z,94.17
2023-05-01T04:37:47.781Z,94.06
2023-05-01T04:40:15.345Z,93.87
2023-05-01T04:42:44.001Z,93.87
2023-05-01T04:45:14.534Z,93.87
2023-05-01T04:47:42.203Z,94.25
2023-05-01T04:50:11.547Z,93.62
2023-05-01T04:52:39.290Z,93.79
2023-05-01T04:55:07.709Z,93.54
2023-05-01T04:57:38.295Z,94.02
2023-05-01T05:00:08.639Z,94.08
2023-05-01T05:02:46.801Z,93.71
2023-05-01T05:05:16.046Z,93.91
2023-05-01T05:07:43.673Z,93.76
2023-05-01T05:10:29.659Z,93.67
2023-05-01T05:13:17.512Z,93.96
2023-05-01T05:15:46.720Z,93.67
2023-05-01T05:18:14.870Z,93.77
2023-05-01T05:20:42.571Z,93.64
2023-05-01T05:23:10.500Z,93.88
2023-05-01T05:25:38.216Z,93.55
2023-05-01T05:28:05.770Z,93.25
2023-05-01T05:30:33.355Z,93.25
2023-05-01T05:33:01.044Z,93.29
2023-05-01T05:35:28.728Z,93.35
2023-05-01T05:37:56.355Z,93.14
2023-05-01T05:40:25.296Z,92.82
2023-05-01T05:42:56.723Z,92.89
2023-05-01T05:45:26.796Z,92.57
2023-05-01T05:47:54.455Z,92.59
2023-05-01T05:50:22.949Z,92.25
2023-05-01T05:52:50.753Z,92.09
2023-05-01T05:55:18.493Z,91.80
2023-05-01T05:57:59.340Z,91.75
2023-05-01T06:00:27.378Z,91.91
2023-05-01T06:02:56.720Z,91.60
2023-05-01T06:05:27.863Z,91.69
2023-05-01T06:07:55.566Z,91.44
2023-05-01T06:10:23.110Z,91.40
2023-05-01T06:13:01.763Z,91.64
2023-05-01T06:15:38.834Z,91.93
2023-05-01T06:18:08.014Z,92.05
2023-05-01T06:20:36.214Z,91.27
2023-05-01T06:23:03.772Z,90.59
2023-05-01T06:25:42.932Z,89.79
2023-05-01T06:28:11.227Z,89.71
2023-05-01T06:30:39.002Z,89.69
2023-05-01T06:33:06.875Z,89.92
2023-05-01T06:35:34.674Z,89.86
2023-05-01T06:38:03.109Z,89.90
2023-05-01T06:40:31.811Z,90.16
2023-05-01T06:42:59.549Z,90.11
2023-05-01T06:45:30.602Z,89.60
2023-05-01T06:47:58.220Z,89.83
2023-05-01T06:50:25.882Z,89.74
2023-05-01T06:52:53.614Z,89.82
2023-05-01T06:55:21.884Z,89.79
2023-05-01T06:57:49.499Z,89.78
2023-05-01T07:00:18.178Z,89.82
2023-05-01T07:02:46.684Z,89.96
2023-05-01T07:05:14.334Z,90.01
2023-05-01T07:07:47.285Z,90.00
2023-05-01T07:10:18.375Z,89.82
2023-05-01T07:12:46.506Z,89.47
2023-05-01T07:15:16.325Z,89.94
2023-05-01T07:17:44.076Z,89.70
2023-05-01T07:20:12.709Z,89.98
2023-05-01T07:22:40.343Z,89.61
2023-05-01T07:25:08.479Z,89.65
2023-05-01T07:27:36.266Z,89.72
2023-05-01T07:30:05.319Z,89.89
2023-05-01T07:32:33.246Z,89.76
2023-05-01T07:35:00.920Z,89.95
2023-05-01T07:37:28.882Z,90.11
2023-05-01T07:39:58.440Z,90.33
2023-05-01T07:42:29.470Z,90.22
2023-05-01T07:44:57.062Z,90.20
2023-05-01T07:47:24.723Z,89.56
2023-05-01T07:49:52.295Z,89.29
2023-05-01T07:52:19.887Z,89.10
2023-05-01T07:54:54.268Z,88.71
2023-05-01T07:57:23.407Z,88.34
2023-05-01T07:59:58.209Z,87.60
2023-05-01T08:02:26.201Z,87.40
2023-05-01T08:04:54.154Z,86.84
2023-05-01T08:07:21.823Z,86.76
2023-05-01T08:09:49.424Z,86.25
2023-05-01T08:12:16.920Z,86.14
2023-05-01T08:14:44.580Z,85.31
2023-05-01T08:17:12.159Z,84.92
2023-05-01T08:19:39.696Z,84.80
2023-05-01T08:22:07.279Z,84.54
2023-05-01T08:24:34.818Z,84.18
2023-05-01T08:27:02.832Z,84.55
2023-05-01T08:29:30.838Z,83.96
2023-05-01T08:31:58.952Z,83.71
2023-05-01T08:34:26.911Z,83.15
2023-05-01T08:36:54.585Z,81.85
2023-05-01T08:39:22.159Z,82.04
2023-05-01T08:41:50.138Z,81.70
2023-05-01T08:44:19.730Z,82.06
2023-05-01T08:46:51.014Z,81.62
2023-05-01T08:49:22.158Z,81.61
2023-05-01T08:51:53.016Z,81.26
2023-05-01T08:54:21.357Z,81.25
2023-05-01T08:56:51.712Z,80.71
2023-05-01T08:59:20.634Z,80.23
2023-05-01T09:01:48.651Z,79.38
2023-05-01T09:04:17.412Z,78.73
2023-05-01T09:06:45.445Z,78.42
2023-05-01T09:09:13.160Z,78.35
2023-05-01T09:11:41.172Z,78.20
2023-05-01T09:14:09.321Z,77.67
2023-05-01T09:16:37.050Z,77.73
2023-05-01T09:19:04.794Z,77.45
2023-05-01T09:21:32.542Z,77.80
2023-05-01T09:24:00.644Z,77.94
2023-05-01T09:26:28.223Z,78.02
2023-05-01T09:28:59.773Z,77.78
2023-05-01T09:31:29.928Z,77.40
2023-05-01T09:33:59.446Z,77.22
2023-05-01T09:36:29.875Z,76.88
2023-05-01T09:38:58.491Z,76.28
2023-05-01T09:41:27.074Z,74.74
2023-05-01T09:43:58.072Z,72.10
2023-05-01T09:46:27.074Z,69.70
2023-05-01T09:48:59.988Z,66.76
2023-05-01T09:51:33.104Z,64.97
2023-05-01T09:54:02.858Z,63.14
2023-05-01T09:56:32.003Z,61.77
2023-05-01T09:59:18.098Z,59.13
2023-05-01T10:01:48.202Z,58.91
2023-05-01T10:04:16.063Z,57.09
2023-05-01T10:06:43.704Z,55.45
2023-05-01T10:09:17.627Z,55.27
2023-05-01T10:11:49.891Z,55.42
2023-05-01T10:14:17.557Z,56.36
2023-05-01T10:22:02.654Z,56.60
2023-05-01T10:24:32.222Z,57.41
2023-05-01T10:27:01.244Z,57.16
2023-05-01T10:29:31.605Z,57.02
2023-05-01T10:32:01.047Z,55.44
2023-05-01T10:34:29.347Z,54.46
2023-05-01T10:37:04.820Z,53.31
2023-05-01T10:39:36.254Z,53.03
2023-05-01T10:42:16.760Z,51.14
2023-05-01T10:44:48.007Z,50.80
2023-05-01T10:48:20.444Z,49.06
2023-05-01T10:51:26.643Z,49.21
2023-05-01T10:54:13.960Z,49.66
2023-05-01T10:56:43.597Z,50.24
2023-05-01T10:59:13.080Z,50.09
2023-05-01T11:06:02.957Z,47.33
2023-05-01T11:08:38.301Z,46.65
2023-05-01T11:15:40.749Z,46.37
2023-05-01T11:18:08.977Z,45.92
2023-05-01T11:20:36.635Z,46.05
2023-05-01T11:23:04.264Z,46.64
2023-05-01T11:25:33.173Z,47.08
2023-05-01T11:28:02.576Z,47.42
2023-05-01T11:30:40.521Z,48.13
2023-05-01T11:33:10.729Z,48.84
2023-05-01T11:35:39.356Z,49.44
2023-05-01T11:38:16.425Z,49.69
2023-05-01T11:40:44.353Z,49.65
2023-05-01T11:43:12.768Z,49.82
2023-05-01T11:45:40.673Z,49.70
2023-05-01T11:48:17.143Z,48.65
2023-05-01T11:50:44.746Z,48.60
2023-05-01T11:53:17.742Z,47.91
2023-05-01T11:55:45.795Z,46.65
2023-05-01T11:58:13.527Z,45.76
2023-05-01T12:00:42.936Z,45.43
2023-05-01T12:03:12.662Z,44.26
2023-05-01T12:05:43.286Z,43.80
2023-05-01T12:08:21.939Z,42.70
2023-05-01T12:10:56.290Z,42.39
2023-05-01T12:13:27.092Z,42.01
2023-05-01T12:15:56.252Z,41.63
2023-05-01T12:18:24.148Z,41.31
2023-05-01T12:20:56.857Z,40.29
2023-05-01T12:23:37.440Z,39.89
2023-05-01T12:26:19.100Z,39.36
2023-05-01T12:28:55.580Z,39.08
2023-05-01T12:31:23.779Z,39.20
2023-05-01T12:33:59.439Z,38.80
2023-05-01T12:36:29.001Z,39.43
2023-05-01T12:39:02.950Z,39.59
2023-05-01T12:41:38.358Z,39.20
2023-05-01T12:48:15.003Z,39.87
2023-05-01T12:50:43.984Z,39.85
2023-05-01T12:53:12.660Z,40.05
2023-05-01T12:55:48.304Z,39.54
2023-05-01T12:58:16.543Z,39.80
2023-05-01T13:00:52.489Z,38.65
2023-05-01T13:03:25.270Z,38.34
2023-05-01T13:05:57.968Z,37.97
2023-05-01T13:08:33.440Z,37.35
2023-05-01T13:11:09.715Z,37.20
2023-05-01T13:13:37.762Z,36.89
2023-05-01T13:16:05.652Z,37.26
2023-05-01T13:18:34.403Z,36.66
2023-05-01T13:21:10.104Z,36.01
2023-05-01T13:23:39.134Z,36.47
2023-05-01T13:26:11.203Z,36.18
2023-05-01T13:28:45.652Z,36.19
2023-05-01T13:31:17.237Z,37.03
2023-05-01T13:33:44.885Z,36.28
2023-05-01T13:36:25.133Z,35.80
2023-05-01T13:38:57.024Z,35.99
2023-05-01T13:41:26.345Z,35.71
2023-05-01T13:43:56.407Z,35.89
2023-05-01T13:46:27.403Z,35.99
2023-05-01T13:48:55.465Z,36.05
2023-05-01T13:51:25.287Z,36.06
2023-05-01T13:53:54.184Z,35.50
2023-05-01T13:56:22.306Z,35.36
2023-05-01T13:58:50.691Z,35.57
2023-05-01T14:01:24.017Z,36.05
2023-05-01T14:03:52.144Z,35.83
2023-05-01T14:06:21.373Z,35.73
2023-05-01T14:08:51.111Z,36.34
2023-05-01T14:11:20.155Z,36.80
2023-05-01T14:13:51.013Z,38.38
2023-05-01T14:16:27.080Z,40.63
2023-05-01T14:18:57.282Z,42.91
2023-05-01T14:21:30.142Z,44.31
2023-05-01T14:23:58.587Z,45.45
2023-05-01T14:26:26.380Z,46.18
2023-05-01T14:28:54.761Z,47.14
2023-05-01T14:31:27.758Z,48.15
2023-05-01T14:34:00.483Z,48.83
2023-05-01T14:36:34.061Z,50.20
2023-05-01T14:39:04.159Z,50.86
2023-05-01T14:41:32.235Z,51.96
2023-05-01T14:44:02.132Z,52.31
2023-05-01T14:46:31.943Z,52.77
2023-05-01T14:49:01.101Z,53.21
2023-05-01T14:51:32.265Z,53.83
2023-05-01T14:54:00.401Z,54.25
2023-05-01T14:56:28.186Z,54.10
2023-05-01T14:58:55.856Z,54.18
2023-05-01T15:02:21.034Z,54.43
2023-05-01T15:04:49.040Z,54.90
2023-05-01T15:07:17.312Z,55.20
2023-05-01T15:09:46.523Z,54.81
2023-05-01T15:12:14.109Z,54.48
2023-05-01T15:14:41.637Z,54.60
2023-05-01T15:17:09.227Z,55.10
2023-05-01T15:19:37.484Z,54.84
2023-05-01T15:22:05.073Z,54.74
2023-05-01T15:24:32.621Z,54.63
2023-05-01T15:27:00.577Z,54.50
2023-05-01T15:29:28.228Z,54.61
2023-05-01T15:32:08.189Z,54.34
2023-05-01T15:34:39.570Z,54.07
2023-05-01T15:37:07.460Z,54.03
2023-05-01T15:39:35.070Z,54.13
2023-05-01T15:42:02.646Z,54.10
2023-05-01T15:44:31.946Z,54.58
2023-05-01T15:46:59.508Z,54.67
2023-05-01T15:49:27.036Z,54.45
2023-05-01T15:51:55.206Z,54.14
2023-05-01T15:54:22.797Z,54.43
2023-05-01T15:56:50.375Z,54.55
2023-05-01T15:59:17.892Z,54.42
2023-05-01T16:01:45.768Z,54.66
2023-05-01T16:04:13.586Z,55.18
2023-05-01T16:06:42.250Z,55.04
2023-05-01T16:09:10.893Z,55.03
2023-05-01T16:11:38.586Z,55.12
2023-05-01T16:14:12.735Z,55.83
2023-05-01T16:16:42.274Z,56.22
2023-05-01T16:19:16.169Z,56.26
2023-05-01T16:21:44.085Z,56.79
2023-05-01T16:24:12.401Z,56.69
2023-05-01T16:26:41.552Z,57.28
2023-05-01T16:29:11.260Z,59.73
2023-05-01T16:31:44.881Z,62.03
2023-05-01T16:34:23.793Z,65.54
2023-05-01T16:36:51.499Z,69.38
2023-05-01T16:39:22.712Z,73.75
2023-05-01T17:04:41.696Z,91.25
2023-05-01T17:20:20.111Z,92.95
2023-05-01T17:22:47.716Z,93.23
2023-05-01T17:25:15.410Z,92.81
2023-05-01T17:27:43.112Z,92.49
2023-05-01T17:30:10.932Z,93.47
2023-05-01T17:32:38.699Z,92.96
2023-05-01T17:35:19.382Z,93.09
2023-05-01T17:42:59.488Z,93.46
2023-05-01T17:45:27.207Z,94.18
2023-05-01T17:47:56.331Z,94.64
2023-05-01T18:03:40.806Z,94.30
2023-05-01T18:13:54.799Z,94.30
2023-05-01T18:16:24.832Z,94.37
2023-05-01T18:19:01.693Z,93.45
2023-05-01T18:21:29.440Z,93.30
2023-05-01T18:23:57.045Z,93.18
2023-05-01T18:26:26.634Z,93.46
2023-05-01T18:29:00.810Z,93.45
2023-05-01T18:31:28.529Z,93.16
2023-05-01T18:33:56.353Z,93.15
2023-05-01T18:36:23.946Z,92.90
2023-05-01T18:43:39.449Z,93.85
2023-05-01T18:46:07.179Z,94.38
2023-05-01T18:48:34.954Z,94.10
2023-05-01T18:53:34.671Z,95.29
2023-05-01T18:56:02.339Z,95.37
2023-05-01T18:58:30.262Z,95.17
2023-05-01T19:00:57.832Z,95.89
2023-05-01T19:03:25.746Z,95.09
2023-05-01T19:05:53.271Z,94.80
2023-05-01T19:08:20.977Z,94.27
2023-05-01T19:10:48.486Z,93.71
2023-05-01T19:13:16.666Z,93.50
2023-05-01T19:15:44.248Z,94.35
2023-05-01T19:18:12.051Z,94.67
2023-05-01T19:20:39.728Z,94.26
2023-05-01T19:23:07.265Z,94.39
2023-05-01T19:25:35.988Z,94.37
2023-05-01T19:28:03.891Z,93.79
2023-05-01T19:30:31.821Z,93.93
2023-05-01T19:32:59.998Z,95.02
2023-05-01T19:35:27.707Z,94.95
2023-05-01T19:37:59.309Z,94.98
2023-05-01T19:40:26.923Z,94.54
2023-05-01T19:42:54.520Z,94.37
2023-05-01T19:45:22.281Z,94.46
2023-05-01T19:47:49.846Z,94.36
2023-05-01T19:50:21.163Z,94.73
2023-05-01T19:52:48.729Z,95.42
2023-05-01T19:55:17.106Z,94.63
2023-05-01T19:57:44.967Z,94.69
2023-05-01T20:00:13.000Z,95.69
2023-05-01T20:02:41.701Z,94.55
2023-05-01T20:05:53.336Z,94.31
2023-05-01T20:08:20.980Z,94.63
2023-05-01T20:10:48.440Z,95.30
2023-05-01T20:13:16.064Z,95.18
2023-05-01T20:15:43.603Z,95.82
2023-05-01T20:18:13.298Z,95.46
2023-05-01T20:20:41.062Z,96.30
2023-05-01T20:23:40.486Z,94.96
2023-05-01T20:30:43.779Z,96.03
2023-05-01T20:33:11.892Z,95.61
2023-05-01T20:35:39.585Z,95.84
2023-05-01T20:38:07.232Z,96.19
2023-05-01T20:40:40.030Z,95.93
2023-05-01T20:43:08.003Z,95.73
2023-05-01T20:45:35.582Z,96.31
2023-05-01T20:48:03.506Z,95.87
2023-05-01T20:50:31.488Z,96.02
2023-05-01T20:52:59.112Z,95.25
2023-05-01T20:55:28.135Z,95.02
2023-05-01T20:57:56.069Z,95.56
2023-05-01T21:00:29.379Z,95.41
2023-05-01T21:26:48.832Z,95.21
2023-05-01T21:29:16.463Z,95.19
2023-05-01T21:31:44.088Z,95.37
2023-05-01T21:34:11.933Z,95.63
2023-05-01T21:36:45.153Z,95.86
2023-05-01T21:39:13.006Z,94.87
2023-05-01T21:46:10.714Z,95.62
2023-05-01T21:48:52.068Z,96.18
2023-05-01T21:51:27.618Z,95.49
2023-05-01T21:53:55.649Z,95.52
2023-05-01T21:56:23.649Z,95.64
2023-05-01T21:58:54.222Z,95.81
2023-05-01T22:01:23.500Z,95.03
2023-05-01T22:03:51.705Z,94.90
2023-05-01T22:06:19.379Z,94.89
2023-05-01T22:08:47.018Z,95.15
2023-05-01T22:11:14.552Z,95.48
2023-05-01T22:13:42.071Z,94.67
2023-05-01T22:16:21.542Z,94.30
2023-05-01T22:18:50.605Z,94.64
2023-05-01T22:21:18.283Z,94.87
2023-05-01T22:23:45.854Z,94.57
2023-05-01T22:26:16.101Z,94.75
2023-05-01T22:29:08.443Z,94.85
2023-05-01T22:31:36.224Z,94.58
2023-05-01T22:34:03.739Z,95.15
2023-05-01T22:36:31.527Z,95.05
2023-05-01T22:38:59.021Z,94.65
2023-05-01T22:41:26.801Z,95.14
2023-05-01T22:43:54.445Z,94.70
2023-05-01T22:46:23.000Z,94.50
2023-05-01T22:48:50.611Z,94.57
2023-05-01T22:51:18.263Z,94.41
2023-05-01T22:53:46.575Z,95.08
2023-05-01T22:56:14.182Z,94.71
2023-05-01T22:58:42.788Z,95.01
2023-05-01T23:01:10.479Z,94.61
2023-05-01T23:03:39.099Z,94.53
2023-05-01T23:06:07.072Z,94.04
2023-05-01T23:08:34.742Z,93.92
2023-05-01T23:11:02.371Z,93.73
2023-05-01T23:13:32.261Z,94.35
2023-05-01T23:15:59.899Z,94.13
2023-05-01T23:18:33.195Z,94.35
2023-05-01T23:21:00.943Z,93.94
2023-05-01T23:23:34.723Z,94.51
2023-05-01T23:26:02.359Z,95.28
2023-05-01T23:28:30.504Z,94.28
2023-05-01T23:31:00.675Z,94.45
2023-05-01T23:33:37.972Z,93.71
2023-05-01T23:36:12.920Z,93.70
2023-05-01T23:38:40.635Z,94.68
2023-05-01T23:41:08.385Z,94.35
2023-05-01T23:43:37.988Z,94.75
2023-05-01T23:46:07.639Z,94.46
2023-05-01T23:48:36.008Z,94.35
2023-05-01T23:51:03.748Z,95.06
2023-05-01T23:53:31.554Z,94.39
2023-05-01T23:55:59.324Z,94.39
2023-05-01T23:58:26.846Z,93.87
